Griffithtown, Arkansas
Current Conditions -  °F | °C
As of 9:56 AM on Friday 19 Dec 2014 (Local Time) from KADF Reporting Station
Haze Haze  
Wind Chill: 40°   Ceiling: 600
Heat Index: 43°   Visibility: 5mi
Dew Point: 43°   Wind: 5mph
Humidity: 100%   Direction: 90°E
Pressure: 30.3"   Gusts: NA
Location:  34.0941°N, 93.0475°W
Report Text: KADF 191556Z AUTO 09004KT 5SM BR OVC006 06/06 A3030 RMK AO2 T00610061 OVC V BKN P0004 PK WND 12080/1517 SLP275
Loading
Personal Weather Stations






























Interactive Weather Map New forecast layout! Learn more

10-Day Weather Forecast

Advertisements
Track Severe Weather on mobile